Terminal Aerodrome Forecast
Issued by NWS

Current Version | Previous Version | Text Only | Print | Product List | Glossary Off
Versions: 1 2 3 4 5 6 7 8 9 10 11 12 13 14 15 16 17 18

000
FTUS41 KPBZ 260849 AAA
TAFHLG
TAF AMD
KHLG 260849Z 2609/2706 16005KT P6SM OVC100
      TEMPO 2610/2614 4SM -SHRA BKN040
     FM261400 21007KT P6SM VCSH BKN050
     FM262100 22005KT P6SM BKN080=

USA.gov is the U.S. government's official web portal to all federal, state and local government web resources and services.